Time;durP1;ratioP1;P1;durP2;ratioP2;P2;SDS_P1;SDS_P2;PMS_P1;PMS_P2;Temp;Humidity;BMP_temperature;BMP_pressure;BME280_temperature;BME280_humidity;BME280_pressure;Samples;Min_cycle;Max_cycle;Signal;HPM_P1;HPM_P2
2021/05/20 00:01:47;;;;;;;79.93;34.60;;;;;;;;;;5055007;28;20247;-51
2021/05/20 00:04:14;;;;;;;82.87;36.17;;;;;;;;;;5054966;28;20230;-54
2021/05/20 00:06:40;;;;;;;80.60;36.17;;;;;;;;;;5055315;28;20206;-51
2021/05/20 00:09:07;;;;;;;83.13;37.13;;;;;;;;;;5055345;28;20206;-56
2021/05/20 00:11:33;;;;;;;86.57;36.83;;;;;;;;;;5055098;28;20201;-56
2021/05/20 00:14:00;;;;;;;82.80;35.57;;;;;;;;;;5054821;28;20714;-55
2021/05/20 00:16:27;;;;;;;82.80;34.40;;;;;;;;;;5055094;28;20221;-58
2021/05/20 00:18:54;;;;;;;74.87;34.83;;;;;;;;;;5054809;28;20213;-56
2021/05/20 00:21:21;;;;;;;80.57;36.57;;;;;;;;;;5054817;28;20230;-55
2021/05/20 00:23:48;;;;;;;84.23;36.37;;;;;;;;;;5054930;28;20287;-58
2021/05/20 00:26:14;;;;;;;88.80;37.20;;;;;;;;;;5055034;28;20205;-58
2021/05/20 00:28:41;;;;;;;98.43;39.37;;;;;;;;;;5054822;28;20228;-56
2021/05/20 00:31:08;;;;;;;78.43;36.33;;;;;;;;;;5054585;28;20211;-55
2021/05/20 00:33:34;;;;;;;73.10;35.13;;;;;;;;;;5054644;28;20216;-51
2021/05/20 00:36:01;;;;;;;66.97;33.70;;;;;;;;;;5054877;28;20216;-55
2021/05/20 00:38:28;;;;;;;63.57;33.00;;;;;;;;;;5054914;28;20256;-57
2021/05/20 00:40:58;;;;;;;62.07;32.57;;;;;;;;;;5054191;28;20237;-56
2021/05/20 00:43:25;;;;;;;65.90;32.67;;;;;;;;;;5054655;28;20239;-54
2021/05/20 00:45:51;;;;;;;63.10;32.63;;;;;;;;;;5054730;28;20206;-56
2021/05/20 00:48:18;;;;;;;61.33;32.33;;;;;;;;;;5054713;28;20221;-56
2021/05/20 00:50:44;;;;;;;73.27;34.57;;;;;;;;;;5054715;28;20230;-56
2021/05/20 00:53:12;;;;;;;75.93;34.60;;;;;;;;;;5054656;28;20240;-58
2021/05/20 00:55:39;;;;;;;70.07;33.83;;;;;;;;;;5054290;28;20301;-59
2021/05/20 00:58:06;;;;;;;71.83;36.23;;;;;;;;;;5054322;28;20213;-57
2021/05/20 01:00:33;;;;;;;73.33;35.00;;;;;;;;;;5054296;28;20230;-57
2021/05/20 01:03:00;;;;;;;72.53;35.43;;;;;;;;;;5054358;28;20206;-58
2021/05/20 01:05:27;;;;;;;80.33;37.50;;;;;;;;;;5052847;28;20279;-58
2021/05/20 01:07:53;;;;;;;84.77;36.67;;;;;;;;;;5054173;28;20743;-56
2021/05/20 01:10:21;;;;;;;95.77;39.83;;;;;;;;;;5053973;28;20720;-57
2021/05/20 01:12:48;;;;;;;103.27;41.90;;;;;;;;;;5054134;28;20209;-50
2021/05/20 01:15:22;;;;;;;100.93;42.00;;;;;;;;;;5053825;28;20238;-54
2021/05/20 01:17:49;;;;;;;104.87;41.87;;;;;;;;;;5054066;28;20265;-53
2021/05/20 01:20:18;;;;;;;107.50;43.77;;;;;;;;;;5053456;28;20698;-59
2021/05/20 01:22:44;;;;;;;110.03;44.80;;;;;;;;;;5054068;28;20205;-56
2021/05/20 01:25:11;;;;;;;113.33;46.40;;;;;;;;;;5053898;28;20232;-59
2021/05/20 01:27:39;;;;;;;126.90;46.97;;;;;;;;;;5053731;28;20214;-55
2021/05/20 01:30:06;;;;;;;133.87;48.47;;;;;;;;;;5053553;28;20205;-56
2021/05/20 01:32:32;;;;;;;147.70;50.07;;;;;;;;;;5053660;28;20259;-58
2021/05/20 01:34:59;;;;;;;145.97;51.40;;;;;;;;;;5054053;28;20226;-59
2021/05/20 01:37:26;;;;;;;147.43;51.10;;;;;;;;;;5054741;28;20198;-57
2021/05/20 01:39:53;;;;;;;169.40;55.43;;;;;;;;;;5054742;28;20213;-59
2021/05/20 01:42:19;;;;;;;166.70;57.60;;;;;;;;;;5054623;28;20275;-55
2021/05/20 01:44:46;;;;;;;177.53;55.47;;;;;;;;;;5053344;28;20222;-56
2021/05/20 01:47:13;;;;;;;162.80;55.33;;;;;;;;;;5053423;28;20221;-55
2021/05/20 01:49:39;;;;;;;185.90;58.60;;;;;;;;;;5053335;28;20202;-53
2021/05/20 01:52:06;;;;;;;188.50;59.90;;;;;;;;;;5053358;28;20642;-57
2021/05/20 01:54:33;;;;;;;205.93;64.27;;;;;;;;;;5053052;28;20226;-56
2021/05/20 01:56:59;;;;;;;211.13;66.77;;;;;;;;;;5053283;28;20213;-56
2021/05/20 01:59:26;;;;;;;198.70;62.23;;;;;;;;;;5053227;28;20228;-58
2021/05/20 02:01:52;;;;;;;209.47;64.43;;;;;;;;;;5052916;28;20221;-54
2021/05/20 02:04:19;;;;;;;217.67;70.43;;;;;;;;;;5053044;28;20253;-56
2021/05/20 02:06:45;;;;;;;224.83;67.93;;;;;;;;;;5052876;28;20209;-52
2021/05/20 02:09:12;;;;;;;248.73;71.67;;;;;;;;;;5052815;28;20217;-53
2021/05/20 02:11:39;;;;;;;246.97;74.03;;;;;;;;;;5052792;28;20577;-56
2021/05/20 02:14:06;;;;;;;287.27;77.47;;;;;;;;;;5052921;28;20237;-52
2021/05/20 02:16:32;;;;;;;310.77;80.47;;;;;;;;;;5052586;28;20259;-57
2021/05/20 02:18:59;;;;;;;289.97;79.13;;;;;;;;;;5052808;28;20206;-53
2021/05/20 02:21:25;;;;;;;316.83;82.23;;;;;;;;;;5052402;28;20229;-55
2021/05/20 02:23:52;;;;;;;277.97;75.40;;;;;;;;;;5052305;28;20260;-51
2021/05/20 02:26:18;;;;;;;338.57;82.13;;;;;;;;;;5052883;28;20207;-55
2021/05/20 02:28:46;;;;;;;321.87;78.67;;;;;;;;;;5052519;28;20230;-52
2021/05/20 02:31:12;;;;;;;320.90;77.60;;;;;;;;;;5052505;28;20206;-57
2021/05/20 02:33:39;;;;;;;378.20;85.20;;;;;;;;;;5052527;28;20207;-55
2021/05/20 02:36:06;;;;;;;385.57;82.53;;;;;;;;;;5052301;28;20206;-55
2021/05/20 02:38:32;;;;;;;368.63;80.07;;;;;;;;;;5052440;28;20206;-56
2021/05/20 02:40:59;;;;;;;397.77;80.83;;;;;;;;;;5052201;28;20233;-59
2021/05/20 02:43:26;;;;;;;354.53;77.43;;;;;;;;;;5052621;28;20263;-53
2021/05/20 02:45:53;;;;;;;420.40;81.90;;;;;;;;;;5052542;28;20565;-52
2021/05/20 02:48:20;;;;;;;433.87;82.67;;;;;;;;;;5054982;28;20208;-59
2021/05/20 02:50:46;;;;;;;467.37;80.83;;;;;;;;;;5055657;28;20577;-59
2021/05/20 02:53:14;;;;;;;408.90;76.93;;;;;;;;;;5052827;28;20211;-58
2021/05/20 02:55:40;;;;;;;423.10;79.30;;;;;;;;;;5051939;28;20741;-58
2021/05/20 02:58:07;;;;;;;442.90;75.30;;;;;;;;;;5052141;28;20219;-56
2021/05/20 03:00:35;;;;;;;314.43;71.50;;;;;;;;;;5052007;28;20230;-57
2021/05/20 03:03:02;;;;;;;312.83;71.63;;;;;;;;;;5051926;28;20205;-57
2021/05/20 03:05:30;;;;;;;269.10;70.97;;;;;;;;;;5051747;28;20233;-56
2021/05/20 03:07:57;;;;;;;249.13;69.00;;;;;;;;;;5052205;28;20206;-55
2021/05/20 03:10:24;;;;;;;239.07;66.40;;;;;;;;;;5051793;28;20576;-58
2021/05/20 03:12:50;;;;;;;217.33;64.70;;;;;;;;;;5051936;28;20210;-57
2021/05/20 03:15:17;;;;;;;211.30;64.97;;;;;;;;;;5051599;28;20244;-52
2021/05/20 03:17:43;;;;;;;213.07;65.07;;;;;;;;;;5051778;28;20683;-56
2021/05/20 03:20:11;;;;;;;224.37;63.13;;;;;;;;;;5051323;28;20226;-59
2021/05/20 03:22:38;;;;;;;214.73;64.57;;;;;;;;;;5051769;28;20211;-58
2021/05/20 03:25:05;;;;;;;223.73;65.87;;;;;;;;;;5051942;28;20223;-55
2021/05/20 03:27:32;;;;;;;218.10;64.90;;;;;;;;;;5052366;28;20280;-55
2021/05/20 03:29:58;;;;;;;202.77;66.00;;;;;;;;;;5055787;28;20206;-55
2021/05/20 03:32:25;;;;;;;201.73;62.80;;;;;;;;;;5055745;28;20210;-56
2021/05/20 03:34:51;;;;;;;191.37;62.67;;;;;;;;;;5055583;28;20298;-55
2021/05/20 03:37:18;;;;;;;201.93;61.73;;;;;;;;;;5055804;28;20210;-56
2021/05/20 03:39:45;;;;;;;187.07;57.67;;;;;;;;;;5055858;28;20210;-52
2021/05/20 03:42:11;;;;;;;174.87;60.43;;;;;;;;;;5055609;28;20809;-57
2021/05/20 03:44:38;;;;;;;187.77;61.60;;;;;;;;;;5055430;28;20226;-57
2021/05/20 03:47:05;;;;;;;196.87;62.30;;;;;;;;;;5055552;28;20209;-55
2021/05/20 03:49:31;;;;;;;214.27;62.40;;;;;;;;;;5055689;28;20222;-57
2021/05/20 03:51:59;;;;;;;207.60;63.53;;;;;;;;;;5055541;28;20212;-55
2021/05/20 03:54:26;;;;;;;189.03;62.70;;;;;;;;;;5055479;28;20313;-57
2021/05/20 03:56:53;;;;;;;193.67;61.70;;;;;;;;;;5055554;28;20217;-59
2021/05/20 03:59:20;;;;;;;182.23;61.23;;;;;;;;;;5055518;28;20614;-58
2021/05/20 04:01:46;;;;;;;180.97;59.00;;;;;;;;;;5055002;28;20281;-57
2021/05/20 04:04:15;;;;;;;171.87;56.73;;;;;;;;;;5055423;28;20726;-58
2021/05/20 04:06:41;;;;;;;164.83;57.90;;;;;;;;;;5055508;28;20218;-56
2021/05/20 04:09:08;;;;;;;158.13;54.67;;;;;;;;;;5055747;28;20603;-57
2021/05/20 04:11:35;;;;;;;150.97;54.20;;;;;;;;;;5055008;28;20200;-54
2021/05/20 04:14:02;;;;;;;149.83;53.00;;;;;;;;;;5054796;28;20587;-58
2021/05/20 04:16:28;;;;;;;133.53;51.90;;;;;;;;;;5055278;28;20234;-57
2021/05/20 04:18:55;;;;;;;141.93;51.20;;;;;;;;;;5043453;28;20209;-59
2021/05/20 04:21:22;;;;;;;143.40;51.90;;;;;;;;;;5048786;28;20613;-59
2021/05/20 04:23:48;;;;;;;136.77;49.87;;;;;;;;;;5055150;28;20234;-57
2021/05/20 04:26:18;;;;;;;146.27;53.10;;;;;;;;;;5055107;28;20207;-57
2021/05/20 04:28:46;;;;;;;139.10;51.83;;;;;;;;;;5054524;28;20280;-57
2021/05/20 04:31:13;;;;;;;124.30;51.27;;;;;;;;;;5051795;28;20190;-55
2021/05/20 04:33:40;;;;;;;130.73;53.67;;;;;;;;;;5051432;28;20211;-51
2021/05/20 04:36:07;;;;;;;134.17;52.07;;;;;;;;;;5054648;28;20213;-54
2021/05/20 04:38:34;;;;;;;132.40;51.37;;;;;;;;;;5054563;28;20264;-57
2021/05/20 04:41:00;;;;;;;134.50;52.73;;;;;;;;;;5054650;28;20710;-56
2021/05/20 04:43:27;;;;;;;138.63;53.97;;;;;;;;;;5054344;28;20203;-58
2021/05/20 04:45:54;;;;;;;137.70;52.20;;;;;;;;;;5054708;28;20206;-56
2021/05/20 04:48:21;;;;;;;125.77;51.07;;;;;;;;;;5054624;28;20207;-64
2021/05/20 04:50:47;;;;;;;128.80;51.00;;;;;;;;;;5053793;28;20554;-59
2021/05/20 04:53:14;;;;;;;123.57;52.20;;;;;;;;;;5054231;28;20258;-59
2021/05/20 04:55:40;;;;;;;136.70;52.67;;;;;;;;;;5054013;28;20281;-61
2021/05/20 04:58:07;;;;;;;162.90;55.20;;;;;;;;;;5053762;28;20217;-59
2021/05/20 05:00:33;;;;;;;150.17;53.57;;;;;;;;;;5054015;28;20238;-59
2021/05/20 05:03:01;;;;;;;134.80;53.73;;;;;;;;;;5054211;28;20276;-59
2021/05/20 05:05:27;;;;;;;121.03;50.67;;;;;;;;;;5053991;28;20273;-60
2021/05/20 05:07:54;;;;;;;124.20;50.37;;;;;;;;;;5054100;28;20627;-59
2021/05/20 05:10:20;;;;;;;122.07;48.20;;;;;;;;;;5053617;28;20202;-60
2021/05/20 05:12:47;;;;;;;108.23;48.47;;;;;;;;;;5053532;28;20671;-59
2021/05/20 05:15:13;;;;;;;123.40;48.33;;;;;;;;;;5053496;28;20243;-65
2021/05/20 05:17:40;;;;;;;111.43;48.33;;;;;;;;;;5046196;28;20217;-62
2021/05/20 05:20:09;;;;;;;115.77;51.67;;;;;;;;;;5046495;28;20217;-62
2021/05/20 05:22:36;;;;;;;130.87;54.23;;;;;;;;;;5047505;28;20212;-61
2021/05/20 05:25:02;;;;;;;123.60;51.43;;;;;;;;;;5033318;28;20281;-62
2021/05/20 05:27:29;;;;;;;131.27;52.47;;;;;;;;;;5033389;28;20261;-62
2021/05/20 05:29:56;;;;;;;132.40;55.67;;;;;;;;;;5033052;28;20657;-62
2021/05/20 05:32:23;;;;;;;129.50;55.20;;;;;;;;;;5033432;28;20254;-62
2021/05/20 05:34:49;;;;;;;130.43;58.00;;;;;;;;;;5033203;28;20759;-63
2021/05/20 05:37:17;;;;;;;130.00;56.10;;;;;;;;;;5033347;28;20207;-63
2021/05/20 05:39:43;;;;;;;139.40;55.17;;;;;;;;;;5043328;28;20212;-63
2021/05/20 05:42:10;;;;;;;136.87;55.93;;;;;;;;;;5053292;28;20233;-63
2021/05/20 05:44:37;;;;;;;124.57;52.80;;;;;;;;;;5053044;28;20222;-63
2021/05/20 05:47:03;;;;;;;112.77;51.50;;;;;;;;;;5053149;28;20599;-63
2021/05/20 05:49:32;;;;;;;115.73;50.37;;;;;;;;;;5052834;28;20212;-63
2021/05/20 05:52:01;;;;;;;113.67;51.37;;;;;;;;;;5052234;28;20198;-63
2021/05/20 05:54:28;;;;;;;121.77;51.03;;;;;;;;;;5052851;28;20611;-65
2021/05/20 05:56:55;;;;;;;118.17;50.63;;;;;;;;;;5052710;28;20214;-65
2021/05/20 05:59:21;;;;;;;129.57;54.37;;;;;;;;;;5052789;28;20214;-64
2021/05/20 06:01:48;;;;;;;130.30;53.30;;;;;;;;;;5052894;28;20223;-65
2021/05/20 06:04:15;;;;;;;142.30;56.17;;;;;;;;;;5052906;28;20250;-64
2021/05/20 06:06:43;;;;;;;139.37;54.03;;;;;;;;;;5052292;28;20206;-64
2021/05/20 06:09:10;;;;;;;143.63;53.47;;;;;;;;;;5052778;28;20218;-60
2021/05/20 06:11:37;;;;;;;136.57;54.17;;;;;;;;;;5052911;28;20234;-62
2021/05/20 06:14:06;;;;;;;132.53;51.90;;;;;;;;;;5052431;28;20256;-62
2021/05/20 06:16:34;;;;;;;139.00;54.10;;;;;;;;;;5052687;28;20235;-62
2021/05/20 06:19:01;;;;;;;159.37;57.30;;;;;;;;;;5050825;28;20204;-61
2021/05/20 06:21:27;;;;;;;161.60;59.90;;;;;;;;;;5051890;28;20296;-59
2021/05/20 06:23:54;;;;;;;149.93;53.80;;;;;;;;;;5052373;28;20239;-60
2021/05/20 06:26:20;;;;;;;129.30;49.83;;;;;;;;;;5052355;28;20207;-68
2021/05/20 06:28:48;;;;;;;131.67;51.43;;;;;;;;;;5052101;28;20207;-60
2021/05/20 06:31:14;;;;;;;109.17;46.90;;;;;;;;;;5051881;28;20234;-60
2021/05/20 06:33:41;;;;;;;105.63;44.33;;;;;;;;;;5052249;28;20215;-59
2021/05/20 06:36:08;;;;;;;107.03;44.47;;;;;;;;;;5053189;28;20242;-62
2021/05/20 06:38:34;;;;;;;105.07;43.57;;;;;;;;;;5053212;28;20229;-63
2021/05/20 06:41:02;;;;;;;110.50;46.07;;;;;;;;;;5052143;28;20228;-64
2021/05/20 06:43:29;;;;;;;107.07;44.37;;;;;;;;;;5045520;28;20205;-64
2021/05/20 06:45:56;;;;;;;114.13;46.93;;;;;;;;;;5031974;28;20209;-60
2021/05/20 06:48:23;;;;;;;112.13;47.10;;;;;;;;;;5034330;28;20210;-66
2021/05/20 06:50:49;;;;;;;98.90;43.83;;;;;;;;;;5037141;28;20205;-63
2021/05/20 06:53:19;;;;;;;98.20;46.60;;;;;;;;;;5032153;28;20556;-63
2021/05/20 06:55:45;;;;;;;109.50;46.80;;;;;;;;;;5031656;28;20240;-62
2021/05/20 07:00:57;;;;;;;92.37;45.23;;;;;;;;;;5051193;28;20227;-62
2021/05/20 07:03:23;;;;;;;88.70;44.43;;;;;;;;;;5051749;28;20216;-61
2021/05/20 07:05:52;;;;;;;83.23;42.20;;;;;;;;;;5051488;28;20230;-62
2021/05/20 07:08:19;;;;;;;88.40;43.83;;;;;;;;;;5051600;28;20202;-66
2021/05/20 07:10:46;;;;;;;77.13;40.83;;;;;;;;;;5051170;28;20209;-66
2021/05/20 07:13:12;;;;;;;78.07;41.90;;;;;;;;;;5035902;28;20663;-66
2021/05/20 07:15:40;;;;;;;91.97;44.83;;;;;;;;;;5031468;28;20249;-66
2021/05/20 07:18:07;;;;;;;83.17;43.13;;;;;;;;;;5031646;28;20210;-66
2021/05/20 07:20:34;;;;;;;82.00;43.50;;;;;;;;;;5031224;28;20260;-64
2021/05/20 07:23:08;;;;;;;80.70;42.93;;;;;;;;;;5031451;28;20571;-61
2021/05/20 07:25:35;;;;;;;75.30;40.40;;;;;;;;;;5031524;28;20316;-62
2021/05/20 07:28:01;;;;;;;71.63;41.70;;;;;;;;;;5031262;28;20210;-62
2021/05/20 07:30:28;;;;;;;72.90;43.13;;;;;;;;;;5031207;28;20206;-62
2021/05/20 07:32:54;;;;;;;68.60;40.33;;;;;;;;;;5031679;28;20217;-62
2021/05/20 07:35:22;;;;;;;77.47;42.90;;;;;;;;;;5031288;28;20234;-61
2021/05/20 07:37:48;;;;;;;73.57;41.87;;;;;;;;;;5031604;28;20206;-62
2021/05/20 07:40:16;;;;;;;62.13;37.73;;;;;;;;;;5030777;28;20230;-63
2021/05/20 07:42:42;;;;;;;64.97;37.40;;;;;;;;;;5031184;28;20237;-63
2021/05/20 07:45:11;;;;;;;68.93;39.33;;;;;;;;;;5031226;28;20690;-64
2021/05/20 07:47:37;;;;;;;71.40;41.30;;;;;;;;;;5031419;28;20671;-63
2021/05/20 07:50:04;;;;;;;70.03;40.03;;;;;;;;;;5030990;28;20213;-63
2021/05/20 07:52:32;;;;;;;64.33;38.17;;;;;;;;;;5031178;28;20203;-61
2021/05/20 07:54:58;;;;;;;59.87;34.60;;;;;;;;;;5030980;28;20230;-60
2021/05/20 07:57:25;;;;;;;63.10;36.57;;;;;;;;;;5031486;28;20214;-60
2021/05/20 07:59:52;;;;;;;54.03;31.97;;;;;;;;;;5030834;28;20211;-66
2021/05/20 08:02:28;;;;;;;52.33;32.70;;;;;;;;;;5031526;28;20226;-62
2021/05/20 08:04:58;;;;;;;51.90;31.43;;;;;;;;;;5031301;28;20237;-62
2021/05/20 08:07:31;;;;;;;55.23;34.03;;;;;;;;;;5031055;28;20210;-62
2021/05/20 08:10:10;;;;;;;49.57;30.57;;;;;;;;;;5030565;28;20860;-63
2021/05/20 08:12:37;;;;;;;45.60;32.17;;;;;;;;;;5031221;28;20216;-61
2021/05/20 08:15:03;;;;;;;48.10;31.70;;;;;;;;;;5033936;28;20703;-59
2021/05/20 08:17:30;;;;;;;40.83;29.13;;;;;;;;;;5035092;28;20258;-59
2021/05/20 08:19:56;;;;;;;37.87;25.53;;;;;;;;;;5034400;28;20585;-58
2021/05/20 08:22:23;;;;;;;34.30;24.00;;;;;;;;;;5034530;28;20257;-61
2021/05/20 08:24:49;;;;;;;30.10;22.37;;;;;;;;;;5034927;28;20226;-64
2021/05/20 08:27:17;;;;;;;30.83;22.40;;;;;;;;;;5034914;28;20311;-65
2021/05/20 08:29:43;;;;;;;33.90;23.50;;;;;;;;;;5034351;28;20223;-64
2021/05/20 08:32:10;;;;;;;33.30;23.60;;;;;;;;;;5034535;28;20204;-65
2021/05/20 08:34:36;;;;;;;30.27;23.33;;;;;;;;;;5051597;28;20720;-65
2021/05/20 08:37:03;;;;;;;32.73;23.87;;;;;;;;;;5054360;28;20212;-64
2021/05/20 08:39:29;;;;;;;32.60;24.57;;;;;;;;;;5054110;28;20274;-63
2021/05/20 08:41:56;;;;;;;38.87;26.23;;;;;;;;;;5053997;28;20757;-62
2021/05/20 08:44:26;;;;;;;36.67;26.90;;;;;;;;;;5054046;28;20229;-63
2021/05/20 08:46:56;;;;;;;40.00;26.97;;;;;;;;;;5054290;28;20210;-64
2021/05/20 08:49:24;;;;;;;34.40;24.27;;;;;;;;;;5053536;28;20572;-63
2021/05/20 08:51:51;;;;;;;30.57;21.20;;;;;;;;;;5053731;28;20613;-59
2021/05/20 08:54:18;;;;;;;31.27;24.27;;;;;;;;;;5054145;28;20287;-61
2021/05/20 08:56:45;;;;;;;37.67;25.63;;;;;;;;;;5054087;28;20784;-66
2021/05/20 08:59:12;;;;;;;35.37;26.90;;;;;;;;;;5052822;28;20207;-64
2021/05/20 09:01:40;;;;;;;36.97;25.47;;;;;;;;;;5053233;28;20225;-66
2021/05/20 09:04:08;;;;;;;41.57;26.70;;;;;;;;;;5053499;28;20221;-62
2021/05/20 09:06:35;;;;;;;42.40;28.13;;;;;;;;;;5054160;28;20207;-60
2021/05/20 09:09:02;;;;;;;46.63;29.60;;;;;;;;;;5053578;28;20210;-62
2021/05/20 09:11:28;;;;;;;51.07;32.00;;;;;;;;;;5053703;28;20202;-63
2021/05/20 09:14:01;;;;;;;52.57;31.30;;;;;;;;;;5053293;28;20233;-62
2021/05/20 09:16:28;;;;;;;50.83;31.67;;;;;;;;;;5053169;28;20225;-63
2021/05/20 09:18:59;;;;;;;52.73;32.77;;;;;;;;;;5053320;28;20212;-63
2021/05/20 09:21:25;;;;;;;56.30;34.77;;;;;;;;;;5053005;28;20602;-63
2021/05/20 09:23:52;;;;;;;54.93;33.10;;;;;;;;;;5053259;28;20740;-62
2021/05/20 09:26:19;;;;;;;53.00;32.73;;;;;;;;;;5051937;28;20879;-63
2021/05/20 09:28:48;;;;;;;53.07;31.60;;;;;;;;;;5052854;28;20217;-64
2021/05/20 09:31:15;;;;;;;50.23;32.90;;;;;;;;;;5053306;28;20231;-65
2021/05/20 09:33:50;;;;;;;59.13;35.93;;;;;;;;;;5043053;28;20211;-63
2021/05/20 09:36:21;;;;;;;58.93;35.10;;;;;;;;;;5033147;28;20213;-59
2021/05/20 09:38:48;;;;;;;53.90;34.00;;;;;;;;;;5033403;28;20213;-62
2021/05/20 09:41:18;;;;;;;56.00;34.17;;;;;;;;;;5032875;28;20234;-62
2021/05/20 09:43:46;;;;;;;54.63;32.63;;;;;;;;;;5033136;28;20347;-58
2021/05/20 09:46:13;;;;;;;50.07;31.90;;;;;;;;;;5033252;28;20208;-56
2021/05/20 09:48:41;;;;;;;52.87;32.93;;;;;;;;;;5033214;28;20262;-56
2021/05/20 09:51:08;;;;;;;49.37;30.77;;;;;;;;;;5033226;28;20248;-55
2021/05/20 09:53:45;;;;;;;47.70;31.03;;;;;;;;;;5033346;28;20208;-57
2021/05/20 09:56:12;;;;;;;49.07;32.90;;;;;;;;;;5033142;28;20211;-64
2021/05/20 09:58:39;;;;;;;50.93;34.37;;;;;;;;;;5032772;28;20679;-62
2021/05/20 10:01:17;;;;;;;51.97;35.63;;;;;;;;;;5032509;28;20733;-61
2021/05/20 10:03:51;;;;;;;50.10;33.13;;;;;;;;;;5032902;28;20213;-61
2021/05/20 10:06:34;;;;;;;39.40;27.40;;;;;;;;;;5032480;28;20246;-62
2021/05/20 10:09:02;;;;;;;43.50;28.07;;;;;;;;;;5032742;28;20209;-58
2021/05/20 10:11:29;;;;;;;40.70;28.23;;;;;;;;;;5032673;28;20209;-58
2021/05/20 10:13:56;;;;;;;37.70;26.50;;;;;;;;;;5032264;28;20718;-55
2021/05/20 10:16:23;;;;;;;40.07;27.33;;;;;;;;;;5032720;28;20213;-59
2021/05/20 10:18:50;;;;;;;33.83;24.17;;;;;;;;;;5032055;28;20678;-60
2021/05/20 10:21:16;;;;;;;34.03;23.87;;;;;;;;;;5032063;28;20624;-60
2021/05/20 10:23:43;;;;;;;32.07;22.23;;;;;;;;;;5032795;28;20214;-61
2021/05/20 10:26:12;;;;;;;33.83;22.43;;;;;;;;;;5032546;28;20202;-59
2021/05/20 10:28:39;;;;;;;27.83;20.27;;;;;;;;;;5032242;28;20359;-62
2021/05/20 10:31:06;;;;;;;29.10;21.07;;;;;;;;;;5031859;28;20740;-61
2021/05/20 10:33:32;;;;;;;28.30;20.63;;;;;;;;;;5032348;28;20237;-60
2021/05/20 10:36:00;;;;;;;25.23;20.13;;;;;;;;;;5032596;28;20214;-60
2021/05/20 10:38:36;;;;;;;25.40;18.90;;;;;;;;;;5032661;28;20209;-62
2021/05/20 10:41:11;;;;;;;24.13;17.77;;;;;;;;;;5032942;28;20232;-69
2021/05/20 10:43:38;;;;;;;21.97;15.40;;;;;;;;;;5036220;28;20259;-69
2021/05/20 10:46:05;;;;;;;24.37;16.57;;;;;;;;;;5042557;28;20214;-71
2021/05/20 10:48:32;;;;;;;18.07;13.07;;;;;;;;;;5035603;28;20822;-69
2021/05/20 10:51:16;;;;;;;20.17;15.47;;;;;;;;;;5038922;28;20256;-70
2021/05/20 10:54:06;;;;;;;20.80;15.83;;;;;;;;;;5036762;28;20210;-67
2021/05/20 10:56:51;;;;;;;20.40;15.03;;;;;;;;;;5032627;28;20206;-67
2021/05/20 10:59:35;;;;;;;21.10;15.07;;;;;;;;;;5032119;28;20210;-67
2021/05/20 11:02:01;;;;;;;15.33;12.50;;;;;;;;;;5031920;28;20222;-67
2021/05/20 11:06:58;;;;;;;15.17;11.77;;;;;;;;;;5068969;28;20217;-67
2021/05/20 11:09:41;;;;;;;14.30;11.73;;;;;;;;;;5071495;28;20208;-66
2021/05/20 11:12:08;;;;;;;17.30;13.27;;;;;;;;;;5071723;28;20196;-66
2021/05/20 11:14:39;;;;;;;19.47;14.83;;;;;;;;;;5086808;22;20292;-70
2021/05/20 11:17:21;;;;;;;21.23;16.03;;;;;;;;;;5091659;28;20205;-68
2021/05/20 11:19:48;;;;;;;18.87;14.27;;;;;;;;;;5071160;28;20204;-69
2021/05/20 11:22:14;;;;;;;17.43;13.83;;;;;;;;;;5091627;28;20228;-66
2021/05/20 11:24:41;;;;;;;16.77;11.80;;;;;;;;;;5092108;28;20257;-66
2021/05/20 11:27:09;;;;;;;15.83;11.10;;;;;;;;;;5091893;28;20210;-69
2021/05/20 11:29:36;;;;;;;14.00;10.10;;;;;;;;;;5090911;28;20203;-68
2021/05/20 11:32:15;;;;;;;11.33;8.90;;;;;;;;;;5091561;28;20226;-68
2021/05/20 11:35:00;;;;;;;9.73;7.60;;;;;;;;;;5091594;28;20238;-68
2021/05/20 11:37:30;;;;;;;8.93;6.53;;;;;;;;;;5091625;28;20294;-67
2021/05/20 11:39:57;;;;;;;9.77;7.33;;;;;;;;;;5091414;28;20204;-68
2021/05/20 11:42:24;;;;;;;9.27;7.80;;;;;;;;;;5091622;28;20619;-69
2021/05/20 11:44:50;;;;;;;10.90;6.40;;;;;;;;;;5091443;28;20220;-67
2021/05/20 11:47:18;;;;;;;10.87;8.77;;;;;;;;;;5091464;28;20207;-69
2021/05/20 11:49:45;;;;;;;10.17;7.90;;;;;;;;;;5093903;28;20269;-66
2021/05/20 11:52:12;;;;;;;8.53;7.30;;;;;;;;;;5095384;28;20217;-66
2021/05/20 11:54:39;;;;;;;9.53;7.60;;;;;;;;;;5095263;28;20224;-69
2021/05/20 11:57:06;;;;;;;8.43;6.90;;;;;;;;;;5095473;28;20211;-70
2021/05/20 11:59:46;;;;;;;8.23;6.77;;;;;;;;;;5095056;28;20200;-70
2021/05/20 12:02:14;;;;;;;11.43;7.43;;;;;;;;;;5095126;28;20220;-69
2021/05/20 12:04:42;;;;;;;9.50;7.27;;;;;;;;;;5095054;28;20220;-70
2021/05/20 12:07:17;;;;;;;9.30;6.37;;;;;;;;;;5095083;28;20241;-68
2021/05/20 12:09:43;;;;;;;9.03;6.43;;;;;;;;;;5094862;28;20629;-65
2021/05/20 12:12:10;;;;;;;7.90;6.50;;;;;;;;;;5095137;28;20257;-65
2021/05/20 12:14:37;;;;;;;8.40;6.60;;;;;;;;;;5094926;28;20232;-65
2021/05/20 12:17:06;;;;;;;8.87;6.00;;;;;;;;;;5094909;28;20261;-67
2021/05/20 12:19:34;;;;;;;9.10;6.10;;;;;;;;;;5094530;28;20204;-67
2021/05/20 12:22:02;;;;;;;9.47;5.83;;;;;;;;;;5094769;28;20228;-63
2021/05/20 12:24:32;;;;;;;10.37;5.80;;;;;;;;;;5095249;28;20220;-63
2021/05/20 12:27:09;;;;;;;7.37;5.93;;;;;;;;;;5094867;28;20200;-64
2021/05/20 12:29:36;;;;;;;5.70;5.10;;;;;;;;;;5094599;28;20575;-59
2021/05/20 12:32:03;;;;;;;8.33;4.97;;;;;;;;;;5094510;28;20661;-61
2021/05/20 12:34:29;;;;;;;9.33;4.90;;;;;;;;;;5094995;28;20228;-65
2021/05/20 12:37:03;;;;;;;5.93;5.17;;;;;;;;;;5094630;28;20200;-65
2021/05/20 12:39:30;;;;;;;6.67;4.97;;;;;;;;;;5094135;28;20208;-61
2021/05/20 12:41:57;;;;;;;7.57;5.40;;;;;;;;;;5094382;28;20216;-61
2021/05/20 12:44:24;;;;;;;7.27;5.00;;;;;;;;;;5094273;28;20237;-61
2021/05/20 12:46:50;;;;;;;6.37;5.13;;;;;;;;;;5094283;28;20204;-63
2021/05/20 12:49:21;;;;;;;5.67;5.03;;;;;;;;;;5094260;28;20204;-61
2021/05/20 12:51:57;;;;;;;5.27;4.50;;;;;;;;;;5094133;28;20200;-60
2021/05/20 12:54:28;;;;;;;5.77;3.87;;;;;;;;;;5094544;28;20223;-59
2021/05/20 12:57:08;;;;;;;7.37;3.30;;;;;;;;;;5094406;28;20200;-60
2021/05/20 12:59:38;;;;;;;4.77;3.50;;;;;;;;;;5093867;28;20205;-59
2021/05/20 13:02:10;;;;;;;6.73;3.37;;;;;;;;;;5093837;28;20264;-60
2021/05/20 13:04:38;;;;;;;5.17;3.77;;;;;;;;;;5094145;28;20235;-59
2021/05/20 13:07:05;;;;;;;5.50;4.13;;;;;;;;;;5093966;28;20215;-60
2021/05/20 13:09:33;;;;;;;7.13;4.37;;;;;;;;;;5093397;28;20208;-60
2021/05/20 13:12:00;;;;;;;4.33;3.90;;;;;;;;;;5093520;28;20211;-59
2021/05/20 13:14:30;;;;;;;5.80;4.13;;;;;;;;;;5093640;28;20278;-60
2021/05/20 13:17:04;;;;;;;5.97;3.80;;;;;;;;;;5093530;28;20691;-60
2021/05/20 13:19:56;;;;;;;6.73;3.90;;;;;;;;;;5093019;28;20238;-61
2021/05/20 13:22:26;;;;;;;5.13;3.60;;;;;;;;;;5093591;28;20228;-58
2021/05/20 13:24:56;;;;;;;7.13;3.83;;;;;;;;;;5092079;28;20231;-66
2021/05/20 13:27:23;;;;;;;5.77;4.10;;;;;;;;;;5089437;28;20197;-59
2021/05/20 13:29:52;;;;;;;6.00;4.03;;;;;;;;;;5093510;28;20208;-52
2021/05/20 13:32:24;;;;;;;4.27;3.30;;;;;;;;;;5093858;28;20200;-57
2021/05/20 13:34:50;;;;;;;5.43;3.33;;;;;;;;;;5093763;28;20247;-64
2021/05/20 13:37:17;;;;;;;4.40;3.40;;;;;;;;;;5093564;28;20253;-65
2021/05/20 13:39:44;;;;;;;5.03;2.87;;;;;;;;;;5093798;28;20204;-61
2021/05/20 13:42:11;;;;;;;6.50;3.40;;;;;;;;;;5093719;28;20228;-61
2021/05/20 13:44:45;;;;;;;3.40;2.97;;;;;;;;;;5093214;28;20236;-61
2021/05/20 13:47:12;;;;;;;3.77;2.90;;;;;;;;;;5093543;28;20645;-62
2021/05/20 13:49:41;;;;;;;3.77;2.90;;;;;;;;;;5093550;28;20669;-61
2021/05/20 13:52:08;;;;;;;5.80;3.00;;;;;;;;;;5093259;28;20197;-61
2021/05/20 13:54:35;;;;;;;4.80;3.10;;;;;;;;;;5093478;28;20228;-61
2021/05/20 13:57:02;;;;;;;3.53;2.87;;;;;;;;;;5093503;28;20204;-61
2021/05/20 13:59:31;;;;;;;5.10;2.70;;;;;;;;;;5093156;28;20684;-61
2021/05/20 14:01:58;;;;;;;3.93;2.43;;;;;;;;;;5092986;28;20224;-61
2021/05/20 14:04:26;;;;;;;4.00;2.40;;;;;;;;;;5093432;28;20811;-60
2021/05/20 14:06:52;;;;;;;3.63;2.60;;;;;;;;;;5093228;28;20200;-61
2021/05/20 14:09:19;;;;;;;3.13;2.20;;;;;;;;;;5093283;28;20269;-61
2021/05/20 14:11:45;;;;;;;4.37;2.53;;;;;;;;;;5092104;28;20309;-61
2021/05/20 14:14:12;;;;;;;3.00;2.47;;;;;;;;;;5092462;28;20689;-60
2021/05/20 14:16:39;;;;;;;4.83;2.33;;;;;;;;;;5092555;28;20211;-60
2021/05/20 14:19:06;;;;;;;4.90;2.50;;;;;;;;;;5092250;28;20686;-61
2021/05/20 14:21:32;;;;;;;3.73;2.30;;;;;;;;;;5091976;28;20235;-61
2021/05/20 14:23:59;;;;;;;4.10;2.50;;;;;;;;;;5092036;28;20739;-60
2021/05/20 14:26:27;;;;;;;4.60;2.70;;;;;;;;;;5092368;28;20200;-61